This is the latest recevied weather packets stored in our database for station/object KC4BAM. If no packets are shown the sender has not sent any weather packets the latest 1 day(s).
| Time | Temp. | Humidity | Pressure | Rain* | Wind** | Luminosity | Snow |
|---|---|---|---|---|---|---|---|
| 1778028884 | 17.22° C | 87% | 997.6 hPa | 0 mm | - | 0 W/m² | - |
| 1778028584 | 17.78° C | 87% | 998 hPa | 0 mm | - | 0 W/m² | - |
| 1778027978 | 17.78° C | 86% | 998.2 hPa | 0 mm | - | 0 W/m² | - |
| 1778027675 | 17.78° C | 86% | 998.1 hPa | 0 mm | - | 1 W/m² | - |
| 1778027371 | 17.22° C | 86% | 998.3 hPa | 0 mm | - | 1 W/m² | - |
| 1778027067 | 17.22° C | 87% | 998.2 hPa | 0 mm | - | 1 W/m² | - |
| 1778026460 | 17.22° C | 87% | 998.4 hPa | 0 mm | - | 1 W/m² | - |
| 1778025855 | 17.22° C | 87% | 998.1 hPa | 0 mm | - | 2 W/m² | - |
| 1778024038 | 17.22° C | 86% | 998.4 hPa | 0 mm | - | 9 W/m² | - |
| 1778021311 | 17.78° C | 81% | 998.9 hPa | 0 mm | - | 20 W/m² | - |
| 1778020706 | 17.78° C | 79% | 998.8 hPa | 4.32 mm | - | 42 W/m² | - |
| 1778019795 | 18.89° C | 71% | 999 hPa | 0 mm | - | 25 W/m² | - |
| 1778019493 | 21.67° C | 61% | 998.9 hPa | 0 mm | - | 23 W/m² | - |
| 1778018281 | 22.78° C | 55% | 998.7 hPa | 0 mm | - | 115 W/m² | - |
| 1778017979 | 22.78° C | 55% | 998.7 hPa | 0 mm | - | 107 W/m² | - |
| 1778015858 | 23.33° C | 56% | 998.7 hPa | 0 mm | - | 253 W/m² | - |
| 1778012828 | 23.89° C | 58% | 998.5 hPa | 0 mm | - | 175 W/m² | - |
| 1778011919 | 22.78° C | 59% | 998.8 hPa | 0 mm | - | 139 W/m² | - |
| 1778011313 | 23.33° C | 58% | 998.9 hPa | 0 mm | - | 184 W/m² | - |
| 1778011009 | 22.78° C | 58% | 998.9 hPa | 0 mm | - | 417 W/m² | - |
| 1778005553 | 22.22° C | 63% | 999.8 hPa | 0 mm | - | 560 W/m² | - |
| 1778005250 | 21.67° C | 65% | 999.9 hPa | 0 mm | - | 764 W/m² | - |
| 1778004644 | 20.56° C | 68% | 1000.1 hPa | 0 mm | - | 747 W/m² | - |
| 1778004339 | 20.56° C | 70% | 1000.1 hPa | 0 mm | - | 324 W/m² | - |
| 1778004038 | 20.56° C | 71% | 1000.3 hPa | 0 mm | - | 286 W/m² | - |
* Rain latest hour (hover to see other rain measurements)
** Current wind speed in m/s (hover to see current wind gust speed)